sensor_id;sensor_type;location;lat;lon;timestamp;pressure;altitude;pressure_sealevel;temperature;humidity
54407;BME280;40313;50.308;30.374;2023-02-10T00:01:28;101374.84;;;-9.83;100.00
54407;BME280;40313;50.308;30.374;2023-02-10T00:03:56;101373.00;;;-9.86;100.00
54407;BME280;40313;50.308;30.374;2023-02-10T00:06:24;101371.22;;;-9.88;100.00
54407;BME280;40313;50.308;30.374;2023-02-10T00:08:53;101373.66;;;-9.90;100.00
54407;BME280;40313;50.308;30.374;2023-02-10T00:11:20;101366.16;;;-9.88;100.00
54407;BME280;40313;50.308;30.374;2023-02-10T00:14:08;101368.63;;;-9.90;100.00
54407;BME280;40313;50.308;30.374;2023-02-10T00:16:35;101360.91;;;-9.92;100.00
54407;BME280;40313;50.308;30.374;2023-02-10T00:19:03;101369.31;;;-9.93;100.00
54407;BME280;40313;50.308;30.374;2023-02-10T00:21:30;101360.69;;;-9.96;100.00
54407;BME280;40313;50.308;30.374;2023-02-10T00:23:56;101371.91;;;-9.91;100.00
54407;BME280;40313;50.308;30.374;2023-02-10T00:26:23;101372.84;;;-9.89;100.00
54407;BME280;40313;50.308;30.374;2023-02-10T00:28:51;101374.53;;;-9.90;100.00
54407;BME280;40313;50.308;30.374;2023-02-10T00:31:17;101361.97;;;-9.88;100.00
54407;BME280;40313;50.308;30.374;2023-02-10T00:33:46;101356.75;;;-9.91;100.00
54407;BME280;40313;50.308;30.374;2023-02-10T00:36:15;101358.75;;;-9.85;100.00
54407;BME280;40313;50.308;30.374;2023-02-10T00:38:41;101355.25;;;-9.87;100.00
54407;BME280;40313;50.308;30.374;2023-02-10T00:41:09;101356.75;;;-9.91;100.00
54407;BME280;40313;50.308;30.374;2023-02-10T00:43:35;101354.06;;;-9.94;100.00
54407;BME280;40313;50.308;30.374;2023-02-10T00:46:04;101342.16;;;-9.97;100.00
54407;BME280;40313;50.308;30.374;2023-02-10T00:48:30;101344.59;;;-9.98;100.00
54407;BME280;40313;50.308;30.374;2023-02-10T00:50:57;101355.22;;;-10.04;100.00
54407;BME280;40313;50.308;30.374;2023-02-10T00:53:25;101339.72;;;-10.10;100.00
54407;BME280;40313;50.308;30.374;2023-02-10T00:55:51;101336.00;;;-10.17;100.00
54407;BME280;40313;50.308;30.374;2023-02-10T00:58:17;101332.44;;;-10.20;100.00
54407;BME280;40313;50.308;30.374;2023-02-10T01:00:44;101338.00;;;-10.26;100.00
54407;BME280;40313;50.308;30.374;2023-02-10T01:03:10;101331.78;;;-10.33;100.00
54407;BME280;40313;50.308;30.374;2023-02-10T01:05:37;101335.81;;;-10.36;100.00
54407;BME280;40313;50.308;30.374;2023-02-10T01:08:03;101333.03;;;-10.41;100.00
54407;BME280;40313;50.308;30.374;2023-02-10T01:10:32;101319.13;;;-10.49;100.00
54407;BME280;40313;50.308;30.374;2023-02-10T01:13:00;101328.19;;;-10.53;100.00
54407;BME280;40313;50.308;30.374;2023-02-10T01:15:26;101322.78;;;-10.59;100.00
54407;BME280;40313;50.308;30.374;2023-02-10T01:17:53;101315.13;;;-10.61;100.00
54407;BME280;40313;50.308;30.374;2023-02-10T01:20:20;101315.13;;;-10.61;100.00
54407;BME280;40313;50.308;30.374;2023-02-10T01:22:46;101315.22;;;-10.59;100.00
54407;BME280;40313;50.308;30.374;2023-02-10T01:25:13;101311.06;;;-10.58;100.00
54407;BME280;40313;50.308;30.374;2023-02-10T01:27:41;101316.88;;;-10.60;100.00
54407;BME280;40313;50.308;30.374;2023-02-10T01:30:08;101309.38;;;-10.58;100.00
54407;BME280;40313;50.308;30.374;2023-02-10T01:32:34;101305.19;;;-10.57;100.00
54407;BME280;40313;50.308;30.374;2023-02-10T01:35:01;101308.69;;;-10.55;100.00
54407;BME280;40313;50.308;30.374;2023-02-10T01:37:27;101306.34;;;-10.52;100.00
54407;BME280;40313;50.308;30.374;2023-02-10T01:39:54;101307.28;;;-10.50;100.00
54407;BME280;40313;50.308;30.374;2023-02-10T01:42:20;101298.25;;;-10.47;100.00
54407;BME280;40313;50.308;30.374;2023-02-10T01:45:13;101306.66;;;-10.46;100.00
54407;BME280;40313;50.308;30.374;2023-02-10T01:47:40;101303.22;;;-10.48;100.00
54407;BME280;40313;50.308;30.374;2023-02-10T01:50:07;101303.97;;;-10.49;100.00
54407;BME280;40313;50.308;30.374;2023-02-10T01:52:34;101303.97;;;-10.49;100.00
54407;BME280;40313;50.308;30.374;2023-02-10T01:55:04;101303.97;;;-10.49;100.00
54407;BME280;40313;50.308;30.374;2023-02-10T01:57:31;101300.53;;;-10.51;100.00
54407;BME280;40313;50.308;30.374;2023-02-10T02:00:00;101293.72;;;-10.52;100.00
54407;BME280;40313;50.308;30.374;2023-02-10T02:02:28;101299.63;;;-10.52;100.00
54407;BME280;40313;50.308;30.374;2023-02-10T02:04:59;101295.47;;;-10.51;100.00
54407;BME280;40313;50.308;30.374;2023-02-10T02:07:28;101292.16;;;-10.50;100.00
54407;BME280;40313;50.308;30.374;2023-02-10T02:09:57;101299.91;;;-10.47;100.00
54407;BME280;40313;50.308;30.374;2023-02-10T02:12:30;101300.84;;;-10.45;100.00
54407;BME280;40313;50.308;30.374;2023-02-10T02:15:06;101299.63;;;-10.37;100.00
54407;BME280;40313;50.308;30.374;2023-02-10T02:17:38;101301.91;;;-10.25;100.00
54407;BME280;40313;50.308;30.374;2023-02-10T02:26:21;101305.38;;;-9.92;100.00
54407;BME280;40313;50.308;30.374;2023-02-10T02:29:07;101292.63;;;-9.78;100.00
54407;BME280;40313;50.308;30.374;2023-02-10T02:34:33;101285.69;;;-9.66;100.00
54407;BME280;40313;50.308;30.374;2023-02-10T02:37:06;101288.56;;;-9.60;100.00
54407;BME280;40313;50.308;30.374;2023-02-10T02:39:34;101281.91;;;-9.58;100.00
54407;BME280;40313;50.308;30.374;2023-02-10T02:42:13;101290.91;;;-9.46;100.00
54407;BME280;40313;50.308;30.374;2023-02-10T02:44:40;101299.69;;;-9.40;100.00
54407;BME280;40313;50.308;30.374;2023-02-10T02:47:14;101287.44;;;-9.32;100.00
54407;BME280;40313;50.308;30.374;2023-02-10T02:49:49;101287.75;;;-9.26;100.00
54407;BME280;40313;50.308;30.374;2023-02-10T02:52:25;101287.28;;;-9.18;100.00
54407;BME280;40313;50.308;30.374;2023-02-10T02:55:00;101292.06;;;-9.07;100.00
54407;BME280;40313;50.308;30.374;2023-02-10T02:57:38;101288.97;;;-9.01;100.00
54407;BME280;40313;50.308;30.374;2023-02-10T03:00:11;101281.69;;;-8.95;100.00
54407;BME280;40313;50.308;30.374;2023-02-10T03:02:40;101278.59;;;-8.89;100.00
54407;BME280;40313;50.308;30.374;2023-02-10T03:05:08;101279.00;;;-8.81;100.00
54407;BME280;40313;50.308;30.374;2023-02-10T03:07:35;101279.28;;;-8.75;100.00
54407;BME280;40313;50.308;30.374;2023-02-10T03:10:02;101274.34;;;-8.72;100.00
54407;BME280;40313;50.308;30.374;2023-02-10T03:12:29;101280.53;;;-8.67;100.00
54407;BME280;40313;50.308;30.374;2023-02-10T03:14:56;101271.31;;;-8.65;100.00
54407;BME280;40313;50.308;30.374;2023-02-10T03:17:22;101270.75;;;-8.59;100.00
54407;BME280;40313;50.308;30.374;2023-02-10T03:19:50;101259.19;;;-8.54;100.00
54407;BME280;40313;50.308;30.374;2023-02-10T03:22:17;101259.47;;;-8.48;100.00
54407;BME280;40313;50.308;30.374;2023-02-10T03:24:43;101263.16;;;-8.41;100.00
54407;BME280;40313;50.308;30.374;2023-02-10T03:27:10;101249.84;;;-8.37;100.00
54407;BME280;40313;50.308;30.374;2023-02-10T03:29:36;101252.56;;;-8.32;100.00
54407;BME280;40313;50.308;30.374;2023-02-10T03:32:03;101242.66;;;-8.28;100.00
54407;BME280;40313;50.308;30.374;2023-02-10T03:34:30;101246.28;;;-8.23;100.00
54407;BME280;40313;50.308;30.374;2023-02-10T03:36:58;101239.69;;;-8.19;100.00
54407;BME280;40313;50.308;30.374;2023-02-10T03:39:25;101239.16;;;-8.12;100.00
54407;BME280;40313;50.308;30.374;2023-02-10T03:41:52;101230.91;;;-8.08;100.00
54407;BME280;40313;50.308;30.374;2023-02-10T03:44:18;101223.56;;;-8.02;100.00
54407;BME280;40313;50.308;30.374;2023-02-10T03:46:45;101220.44;;;-7.96;100.00
54407;BME280;40313;50.308;30.374;2023-02-10T03:49:11;101214.78;;;-7.90;100.00
54407;BME280;40313;50.308;30.374;2023-02-10T03:51:37;101212.53;;;-7.84;100.00
54407;BME280;40313;50.308;30.374;2023-02-10T03:54:05;101206.94;;;-7.77;100.00
54407;BME280;40313;50.308;30.374;2023-02-10T03:56:31;101200.44;;;-7.70;100.00
54407;BME280;40313;50.308;30.374;2023-02-10T03:58:59;101200.66;;;-7.66;100.00
54407;BME280;40313;50.308;30.374;2023-02-10T04:01:25;101203.41;;;-7.61;100.00
54407;BME280;40313;50.308;30.374;2023-02-10T04:03:52;101202.78;;;-7.55;100.00
54407;BME280;40313;50.308;30.374;2023-02-10T04:06:18;101202.91;;;-7.52;100.00
54407;BME280;40313;50.308;30.374;2023-02-10T04:08:46;101207.31;;;-7.48;100.00
54407;BME280;40313;50.308;30.374;2023-02-10T04:11:14;101201.50;;;-7.45;100.00
54407;BME280;40313;50.308;30.374;2023-02-10T04:13:41;101214.31;;;-7.42;100.00
54407;BME280;40313;50.308;30.374;2023-02-10T04:16:09;101215.22;;;-7.40;100.00
54407;BME280;40313;50.308;30.374;2023-02-10T04:18:36;101223.72;;;-7.40;100.00
54407;BME280;40313;50.308;30.374;2023-02-10T04:21:05;101220.38;;;-7.39;100.00
54407;BME280;40313;50.308;30.374;2023-02-10T04:23:31;101213.66;;;-7.38;100.00
54407;BME280;40313;50.308;30.374;2023-02-10T04:25:59;101218.66;;;-7.40;100.00
54407;BME280;40313;50.308;30.374;2023-02-10T04:28:26;101210.16;;;-7.40;100.00
54407;BME280;40313;50.308;30.374;2023-02-10T04:30:53;101216.06;;;-7.41;100.00
54407;BME280;40313;50.308;30.374;2023-02-10T04:33:21;101215.91;;;-7.44;100.00
54407;BME280;40313;50.308;30.374;2023-02-10T04:35:50;101220.84;;;-7.48;100.00
54407;BME280;40313;50.308;30.374;2023-02-10T04:38:17;101221.66;;;-7.49;100.00
54407;BME280;40313;50.308;30.374;2023-02-10T04:40:43;101212.19;;;-7.53;100.00
54407;BME280;40313;50.308;30.374;2023-02-10T04:43:10;101207.13;;;-7.53;100.00
54407;BME280;40313;50.308;30.374;2023-02-10T04:45:37;101207.13;;;-7.53;100.00
54407;BME280;40313;50.308;30.374;2023-02-10T04:48:04;101207.13;;;-7.53;100.00
54407;BME280;40313;50.308;30.374;2023-02-10T04:50:30;101205.38;;;-7.54;100.00
54407;BME280;40313;50.308;30.374;2023-02-10T04:52:57;101207.06;;;-7.54;100.00
54407;BME280;40313;50.308;30.374;2023-02-10T04:55:23;101203.66;;;-7.55;100.00
54407;BME280;40313;50.308;30.374;2023-02-10T04:57:49;101201.06;;;-7.56;100.00
54407;BME280;40313;50.308;30.374;2023-02-10T05:00:16;101194.25;;;-7.57;100.00
54407;BME280;40313;50.308;30.374;2023-02-10T05:02:44;101191.63;;;-7.59;100.00
54407;BME280;40313;50.308;30.374;2023-02-10T05:05:10;101180.66;;;-7.59;100.00
54407;BME280;40313;50.308;30.374;2023-02-10T05:07:37;101188.19;;;-7.61;100.00
54407;BME280;40313;50.308;30.374;2023-02-10T05:10:04;101188.84;;;-7.65;100.00
54407;BME280;40313;50.308;30.374;2023-02-10T05:12:30;101187.78;;;-7.70;100.00
54407;BME280;40313;50.308;30.374;2023-02-10T05:14:56;101177.28;;;-7.79;100.00
54407;BME280;40313;50.308;30.374;2023-02-10T05:17:23;101181.13;;;-7.88;100.00
54407;BME280;40313;50.308;30.374;2023-02-10T05:19:50;101180.81;;;-7.95;100.00
54407;BME280;40313;50.308;30.374;2023-02-10T05:22:17;101195.59;;;-8.05;100.00
54407;BME280;40313;50.308;30.374;2023-02-10T05:24:43;101199.53;;;-8.11;100.00
54407;BME280;40313;50.308;30.374;2023-02-10T05:27:09;101198.31;;;-8.20;100.00
54407;BME280;40313;50.308;30.374;2023-02-10T05:29:36;101198.84;;;-8.27;100.00
54407;BME280;40313;50.308;30.374;2023-02-10T05:32:02;101196.81;;;-8.34;100.00
54407;BME280;40313;50.308;30.374;2023-02-10T05:34:28;101198.13;;;-8.42;100.00
54407;BME280;40313;50.308;30.374;2023-02-10T05:36:56;101204.53;;;-8.51;100.00
54407;BME280;40313;50.308;30.374;2023-02-10T05:39:22;101200.13;;;-8.55;100.00
54407;BME280;40313;50.308;30.374;2023-02-10T05:41:49;101204.31;;;-8.55;100.00
54407;BME280;40313;50.308;30.374;2023-02-10T05:44:15;101198.59;;;-8.51;100.00
54407;BME280;40313;50.308;30.374;2023-02-10T05:46:42;101192.34;;;-8.40;100.00
54407;BME280;40313;50.308;30.374;2023-02-10T05:49:08;101177.63;;;-8.29;100.00
54407;BME280;40313;50.308;30.374;2023-02-10T05:51:34;101181.56;;;-8.16;100.00
54407;BME280;40313;50.308;30.374;2023-02-10T05:54:02;101174.53;;;-8.04;100.00
54407;BME280;40313;50.308;30.374;2023-02-10T05:56:29;101177.63;;;-7.91;100.00
54407;BME280;40313;50.308;30.374;2023-02-10T05:58:55;101175.53;;;-7.81;100.00
54407;BME280;40313;50.308;30.374;2023-02-10T06:01:21;101175.06;;;-7.72;100.00
54407;BME280;40313;50.308;30.374;2023-02-10T06:03:48;101163.53;;;-7.65;100.00
54407;BME280;40313;50.308;30.374;2023-02-10T06:06:14;101160.19;;;-7.64;100.00
54407;BME280;40313;50.308;30.374;2023-02-10T06:08:41;101166.91;;;-7.65;100.00
54407;BME280;40313;50.308;30.374;2023-02-10T06:11:08;101174.38;;;-7.68;100.00
54407;BME280;40313;50.308;30.374;2023-02-10T06:13:35;101168.34;;;-7.71;100.00
54407;BME280;40313;50.308;30.374;2023-02-10T06:16:02;101176.66;;;-7.74;100.00
54407;BME280;40313;50.308;30.374;2023-02-10T06:18:28;101168.06;;;-7.77;100.00
54407;BME280;40313;50.308;30.374;2023-02-10T06:20:54;101164.47;;;-7.83;100.00
54407;BME280;40313;50.308;30.374;2023-02-10T06:23:21;101164.41;;;-7.84;100.00
54407;BME280;40313;50.308;30.374;2023-02-10T06:25:47;101157.59;;;-7.85;100.00
54407;BME280;40313;50.308;30.374;2023-02-10T06:28:15;101156.59;;;-7.89;100.00
54407;BME280;40313;50.308;30.374;2023-02-10T06:30:41;101163.41;;;-7.88;100.00
54407;BME280;40313;50.308;30.374;2023-02-10T06:33:08;101155.88;;;-7.86;100.00
54407;BME280;40313;50.308;30.374;2023-02-10T06:35:34;101157.00;;;-7.79;100.00
54407;BME280;40313;50.308;30.374;2023-02-10T06:38:00;101164.06;;;-7.72;100.00
54407;BME280;40313;50.308;30.374;2023-02-10T06:40:27;101156.78;;;-7.65;100.00
54407;BME280;40313;50.308;30.374;2023-02-10T06:42:53;101152.97;;;-7.55;100.00
54407;BME280;40313;50.308;30.374;2023-02-10T06:45:21;101152.63;;;-7.43;100.00
54407;BME280;40313;50.308;30.374;2023-02-10T06:47:47;101144.59;;;-7.33;100.00
54407;BME280;40313;50.308;30.374;2023-02-10T06:50:13;101137.44;;;-7.20;100.00
54407;BME280;40313;50.308;30.374;2023-02-10T06:52:42;101128.81;;;-7.04;100.00
54407;BME280;40313;50.308;30.374;2023-02-10T06:55:09;101125.19;;;-6.88;100.00
54407;BME280;40313;50.308;30.374;2023-02-10T06:57:36;101121.72;;;-6.68;100.00
54407;BME280;40313;50.308;30.374;2023-02-10T07:00:03;101125.13;;;-6.45;100.00
54407;BME280;40313;50.308;30.374;2023-02-10T07:02:31;101126.09;;;-6.18;100.00
54407;BME280;40313;50.308;30.374;2023-02-10T07:04:57;101116.91;;;-5.89;100.00
54407;BME280;40313;50.308;30.374;2023-02-10T07:07:24;101114.59;;;-5.57;100.00
54407;BME280;40313;50.308;30.374;2023-02-10T07:09:50;101108.84;;;-5.26;100.00
54407;BME280;40313;50.308;30.374;2023-02-10T07:12:18;101110.53;;;-4.97;100.00
54407;BME280;40313;50.308;30.374;2023-02-10T07:14:46;101111.25;;;-4.74;100.00
54407;BME280;40313;50.308;30.374;2023-02-10T07:17:12;101116.00;;;-4.56;100.00
54407;BME280;40313;50.308;30.374;2023-02-10T07:19:40;101113.19;;;-4.37;100.00
54407;BME280;40313;50.308;30.374;2023-02-10T07:22:07;101104.28;;;-4.21;100.00
54407;BME280;40313;50.308;30.374;2023-02-10T07:24:34;101109.75;;;-4.07;100.00
54407;BME280;40313;50.308;30.374;2023-02-10T07:27:00;101116.09;;;-3.92;100.00
54407;BME280;40313;50.308;30.374;2023-02-10T07:29:27;101118.88;;;-3.83;100.00
54407;BME280;40313;50.308;30.374;2023-02-10T07:31:54;101107.16;;;-3.76;100.00
54407;BME280;40313;50.308;30.374;2023-02-10T07:34:21;101103.06;;;-3.70;100.00
54407;BME280;40313;50.308;30.374;2023-02-10T07:36:49;101093.03;;;-3.63;100.00
54407;BME280;40313;50.308;30.374;2023-02-10T07:39:19;101097.53;;;-3.53;100.00
54407;BME280;40313;50.308;30.374;2023-02-10T07:41:46;101073.88;;;-3.46;100.00
54407;BME280;40313;50.308;30.374;2023-02-10T07:44:12;101073.13;;;-3.42;100.00
54407;BME280;40313;50.308;30.374;2023-02-10T07:46:39;101088.44;;;-3.42;100.00
54407;BME280;40313;50.308;30.374;2023-02-10T07:49:05;101103.81;;;-3.39;100.00
54407;BME280;40313;50.308;30.374;2023-02-10T07:51:32;101095.41;;;-3.35;100.00
54407;BME280;40313;50.308;30.374;2023-02-10T07:54:00;101086.28;;;-3.26;100.00
54407;BME280;40313;50.308;30.374;2023-02-10T07:56:26;101077.22;;;-3.14;100.00
54407;BME280;40313;50.308;30.374;2023-02-10T07:58:53;101076.88;;;-2.91;100.00
54407;BME280;40313;50.308;30.374;2023-02-10T08:01:19;101072.19;;;-2.71;100.00
54407;BME280;40313;50.308;30.374;2023-02-10T08:03:46;101077.75;;;-2.48;100.00
54407;BME280;40313;50.308;30.374;2023-02-10T08:06:18;101073.00;;;-2.31;100.00
54407;BME280;40313;50.308;30.374;2023-02-10T08:08:45;101066.34;;;-2.22;100.00
54407;BME280;40313;50.308;30.374;2023-02-10T08:11:14;101065.38;;;-2.28;100.00
54407;BME280;40313;50.308;30.374;2023-02-10T08:13:40;101071.44;;;-2.22;100.00
54407;BME280;40313;50.308;30.374;2023-02-10T08:16:07;101079.06;;;-2.26;100.00
54407;BME280;40313;50.308;30.374;2023-02-10T08:18:36;101064.53;;;-2.28;100.00
54407;BME280;40313;50.308;30.374;2023-02-10T08:21:03;101067.06;;;-2.30;100.00
54407;BME280;40313;50.308;30.374;2023-02-10T08:23:30;101064.41;;;-2.34;100.00
54407;BME280;40313;50.308;30.374;2023-02-10T08:25:57;101069.53;;;-2.34;100.00
54407;BME280;40313;50.308;30.374;2023-02-10T08:28:25;101074.56;;;-2.37;100.00
54407;BME280;40313;50.308;30.374;2023-02-10T08:30:51;101074.53;;;-2.39;100.00
54407;BME280;40313;50.308;30.374;2023-02-10T08:33:18;101079.59;;;-2.40;100.00
54407;BME280;40313;50.308;30.374;2023-02-10T08:35:44;101077.88;;;-2.41;100.00
54407;BME280;40313;50.308;30.374;2023-02-10T08:38:11;101068.56;;;-2.39;100.00
54407;BME280;40313;50.308;30.374;2023-02-10T08:40:38;101076.34;;;-2.33;100.00
54407;BME280;40313;50.308;30.374;2023-02-10T08:43:04;101073.84;;;-2.30;100.00
54407;BME280;40313;50.308;30.374;2023-02-10T08:45:32;101067.13;;;-2.25;100.00
54407;BME280;40313;50.308;30.374;2023-02-10T08:47:59;101066.38;;;-2.21;100.00
54407;BME280;40313;50.308;30.374;2023-02-10T08:50:26;101065.56;;;-2.18;100.00
54407;BME280;40313;50.308;30.374;2023-02-10T08:52:53;101069.78;;;-2.19;100.00
54407;BME280;40313;50.308;30.374;2023-02-10T08:55:19;101067.25;;;-2.19;100.00
54407;BME280;40313;50.308;30.374;2023-02-10T08:57:46;101056.97;;;-2.22;100.00
54407;BME280;40313;50.308;30.374;2023-02-10T09:00:12;101055.28;;;-2.21;100.00
54407;BME280;40313;50.308;30.374;2023-02-10T09:02:40;101060.41;;;-2.21;100.00
54407;BME280;40313;50.308;30.374;2023-02-10T09:05:06;101054.28;;;-2.28;100.00
54407;BME280;40313;50.308;30.374;2023-02-10T09:07:33;101056.03;;;-2.27;100.00
54407;BME280;40313;50.308;30.374;2023-02-10T09:09:59;101049.19;;;-2.28;100.00
54407;BME280;40313;50.308;30.374;2023-02-10T09:12:26;101054.28;;;-2.28;100.00
54407;BME280;40313;50.308;30.374;2023-02-10T09:14:52;101052.59;;;-2.28;100.00
54407;BME280;40313;50.308;30.374;2023-02-10T09:17:18;101047.47;;;-2.28;100.00
54407;BME280;40313;50.308;30.374;2023-02-10T09:19:46;101044.09;;;-2.27;100.00
54407;BME280;40313;50.308;30.374;2023-02-10T09:22:12;101043.31;;;-2.22;100.00
54407;BME280;40313;50.308;30.374;2023-02-10T09:24:39;101042.50;;;-2.21;100.00
54407;BME280;40313;50.308;30.374;2023-02-10T09:27:07;101034.88;;;-2.18;100.00
54407;BME280;40313;50.308;30.374;2023-02-10T09:29:34;101028.13;;;-2.15;100.00
54407;BME280;40313;50.308;30.374;2023-02-10T09:32:00;101029.06;;;-2.11;100.00
54407;BME280;40313;50.308;30.374;2023-02-10T09:34:26;101023.97;;;-2.10;100.00
54407;BME280;40313;50.308;30.374;2023-02-10T09:36:56;101019.78;;;-2.04;100.00
54407;BME280;40313;50.308;30.374;2023-02-10T09:39:26;101016.44;;;-2.00;100.00
54407;BME280;40313;50.308;30.374;2023-02-10T09:41:57;101019.94;;;-1.97;100.00
54407;BME280;40313;50.308;30.374;2023-02-10T09:44:29;101015.81;;;-1.88;100.00
54407;BME280;40313;50.308;30.374;2023-02-10T09:47:22;101009.19;;;-1.77;100.00
54407;BME280;40313;50.308;30.374;2023-02-10T09:49:59;101010.09;;;-1.72;100.00
54407;BME280;40313;50.308;30.374;2023-02-10T09:52:35;100995.66;;;-1.68;100.00
54407;BME280;40313;50.308;30.374;2023-02-10T09:55:03;100996.63;;;-1.60;100.00
54407;BME280;40313;50.308;30.374;2023-02-10T09:57:34;101001.88;;;-1.52;100.00
54407;BME280;40313;50.308;30.374;2023-02-10T10:00:03;100998.53;;;-1.48;100.00
54407;BME280;40313;50.308;30.374;2023-02-10T10:02:31;101004.59;;;-1.40;100.00
54407;BME280;40313;50.308;30.374;2023-02-10T10:04:59;100996.22;;;-1.31;100.00
54407;BME280;40313;50.308;30.374;2023-02-10T10:07:26;100996.28;;;-1.25;100.00
54407;BME280;40313;50.308;30.374;2023-02-10T10:10:01;100984.38;;;-1.22;100.00
54407;BME280;40313;50.308;30.374;2023-02-10T10:12:28;100982.78;;;-1.15;100.00
54407;BME280;40313;50.308;30.374;2023-02-10T10:14:55;100977.72;;;-1.09;100.00
54407;BME280;40313;50.308;30.374;2023-02-10T10:17:32;100973.59;;;-0.99;100.00
54407;BME280;40313;50.308;30.374;2023-02-10T10:20:06;100975.38;;;-0.92;100.00
54407;BME280;40313;50.308;30.374;2023-02-10T10:22:47;100970.38;;;-0.84;100.00
54407;BME280;40313;50.308;30.374;2023-02-10T10:25:32;100966.22;;;-0.74;100.00
54407;BME280;40313;50.308;30.374;2023-02-10T10:28:12;100962.06;;;-0.63;99.35
54407;BME280;40313;50.308;30.374;2023-02-10T10:30:44;100945.03;;;-0.56;97.13
54407;BME280;40313;50.308;30.374;2023-02-10T10:33:20;100943.41;;;-0.49;93.98
54407;BME280;40313;50.308;30.374;2023-02-10T10:35:48;100945.16;;;-0.47;95.20
54407;BME280;40313;50.308;30.374;2023-02-10T10:38:18;100940.06;;;-0.42;92.90
54407;BME280;40313;50.308;30.374;2023-02-10T10:40:49;100934.13;;;-0.37;90.40
54407;BME280;40313;50.308;30.374;2023-02-10T10:43:21;100930.78;;;-0.26;88.36
54407;BME280;40313;50.308;30.374;2023-02-10T10:45:52;100930.91;;;-0.17;87.53
54407;BME280;40313;50.308;30.374;2023-02-10T10:48:23;100930.91;;;-0.15;89.49
54407;BME280;40313;50.308;30.374;2023-02-10T10:50:55;100927.47;;;-0.13;87.00
54407;BME280;40313;50.308;30.374;2023-02-10T10:53:33;100923.25;;;-0.11;89.86
54407;BME280;40313;50.308;30.374;2023-02-10T10:56:03;100924.16;;;-0.06;85.81
54407;BME280;40313;50.308;30.374;2023-02-10T10:58:31;100919.91;;;0.01;86.56
54407;BME280;40313;50.308;30.374;2023-02-10T11:00:58;100922.50;;;0.04;89.45
54407;BME280;40313;50.308;30.374;2023-02-10T11:03:25;100902.84;;;0.08;85.70
54407;BME280;40313;50.308;30.374;2023-02-10T11:05:57;100899.47;;;0.09;89.52
54407;BME280;40313;50.308;30.374;2023-02-10T11:08:25;100903.72;;;0.11;90.12
54407;BME280;40313;50.308;30.374;2023-02-10T11:10:53;100908.00;;;0.09;88.16
54407;BME280;40313;50.308;30.374;2023-02-10T11:13:22;100906.28;;;0.08;91.41
54407;BME280;40313;50.308;30.374;2023-02-10T11:15:56;100901.16;;;0.10;91.23
54407;BME280;40313;50.308;30.374;2023-02-10T11:18:24;100905.44;;;0.11;90.39
54407;BME280;40313;50.308;30.374;2023-02-10T11:20:51;100896.91;;;0.12;90.12
54407;BME280;40313;50.308;30.374;2023-02-10T11:23:18;100896.91;;;0.13;87.28
54407;BME280;40313;50.308;30.374;2023-02-10T11:25:45;100889.22;;;0.13;90.07
54407;BME280;40313;50.308;30.374;2023-02-10T11:28:16;100888.38;;;0.13;91.47
54407;BME280;40313;50.308;30.374;2023-02-10T11:30:45;100889.25;;;0.20;92.56
54407;BME280;40313;50.308;30.374;2023-02-10T11:33:18;100879.88;;;0.25;87.49
54407;BME280;40313;50.308;30.374;2023-02-10T11:35:46;100885.03;;;0.29;88.92
54407;BME280;40313;50.308;30.374;2023-02-10T11:38:16;100874.75;;;0.28;91.52
54407;BME280;40313;50.308;30.374;2023-02-10T11:40:49;100861.94;;;0.29;92.61
54407;BME280;40313;50.308;30.374;2023-02-10T11:43:16;100872.22;;;0.31;93.04
54407;BME280;40313;50.308;30.374;2023-02-10T11:45:53;100867.97;;;0.34;92.41
54407;BME280;40313;50.308;30.374;2023-02-10T11:48:22;100861.13;;;0.37;95.04
54407;BME280;40313;50.308;30.374;2023-02-10T11:51:00;100856.88;;;0.40;94.46
54407;BME280;40313;50.308;30.374;2023-02-10T11:53:31;100850.03;;;0.48;90.12
54407;BME280;40313;50.308;30.374;2023-02-10T11:56:03;100859.47;;;0.56;90.57
54407;BME280;40313;50.308;30.374;2023-02-10T11:58:43;100862.94;;;0.62;89.01
54407;BME280;40313;50.308;30.374;2023-02-10T12:01:48;100861.28;;;0.69;93.05
54407;BME280;40313;50.308;30.374;2023-02-10T12:04:50;100861.28;;;0.81;91.40
54407;BME280;40313;50.308;30.374;2023-02-10T12:07:29;100858.78;;;0.94;90.87
54407;BME280;40313;50.308;30.374;2023-02-10T12:10:04;100856.25;;;1.05;88.86
54407;BME280;40313;50.308;30.374;2023-02-10T12:12:40;100852.00;;;1.17;92.29
54407;BME280;40313;50.308;30.374;2023-02-10T12:15:19;100843.44;;;1.31;89.65
54407;BME280;40313;50.308;30.374;2023-02-10T12:18:00;100834.88;;;1.50;88.87
54407;BME280;40313;50.308;30.374;2023-02-10T12:20:38;100835.75;;;1.68;86.82
54407;BME280;40313;50.308;30.374;2023-02-10T12:23:28;100833.13;;;1.89;86.22
54407;BME280;40313;50.308;30.374;2023-02-10T12:26:04;100830.53;;;2.11;88.09
54407;BME280;40313;50.308;30.374;2023-02-10T12:28:43;100827.91;;;2.27;85.05
54407;BME280;40313;50.308;30.374;2023-02-10T12:31:14;100827.91;;;2.36;85.52
54407;BME280;40313;50.308;30.374;2023-02-10T12:33:58;100823.53;;;2.46;83.30
54407;BME280;40313;50.308;30.374;2023-02-10T12:36:31;100822.66;;;2.51;87.29
54407;BME280;40313;50.308;30.374;2023-02-10T12:39:12;100817.53;;;2.54;88.61
54407;BME280;40313;50.308;30.374;2023-02-10T12:41:46;100820.06;;;2.59;92.40
54407;BME280;40313;50.308;30.374;2023-02-10T12:44:31;100813.19;;;2.59;90.95
54407;BME280;40313;50.308;30.374;2023-02-10T12:47:09;100812.28;;;2.70;91.60
54407;BME280;40313;50.308;30.374;2023-02-10T12:49:51;100814.00;;;2.71;88.41
54407;BME280;40313;50.308;30.374;2023-02-10T12:52:23;100809.72;;;2.68;91.49